Time;durP1;ratioP1;P1;durP2;ratioP2;P2;SDS_P1;SDS_P2;PMS_P1;PMS_P2;Temp;Humidity;BMP_temperature;BMP_pressure;BME280_temperature;BME280_humidity;BME280_pressure;Samples;Min_cycle;Max_cycle;Signal;HPM_P1;HPM_P2
2022/07/17 00:01:52;;;;;;;5.72;2.38;;;;;;;13.32;nan;102610.16;5030122;28;20112;-59
2022/07/17 00:04:18;;;;;;;5.35;2.55;;;;;;;13.32;nan;102621.63;5030912;28;20033;-60
2022/07/17 00:06:43;;;;;;;4.82;2.10;;;;;;;13.65;nan;102669.63;5031703;28;20049;-60
2022/07/17 00:09:08;;;;;;;6.93;2.20;;;;;;;13.64;nan;102671.38;5031740;28;20054;-59
2022/07/17 00:11:34;;;;;;;8.38;2.22;;;;;;;13.67;nan;102678.41;5030492;28;20029;-58
2022/07/17 00:13:59;;;;;;;4.30;1.92;;;;;;;13.68;nan;102670.44;5031655;28;20504;-59
2022/07/17 00:16:25;;;;;;;7.18;3.10;;;;;;;13.62;nan;102653.78;5030508;28;20113;-60
2022/07/17 00:18:50;;;;;;;4.68;2.05;;;;;;;13.12;nan;102584.03;5031462;28;20460;-59
2022/07/17 00:21:16;;;;;;;3.83;2.35;;;;;;;13.64;nan;102678.44;5031354;28;20040;-60
2022/07/17 00:23:41;;;;;;;6.63;2.53;;;;;;;13.38;nan;102626.81;5031427;28;20033;-59
2022/07/17 00:26:07;;;;;;;4.70;2.00;;;;;;;-142.64;100.00;58178.75;5013626;28;20033;-59
2022/07/17 00:28:32;;;;;;;4.10;2.53;;;;;;;;;;5031323;28;20111;-58
2022/07/17 00:30:57;;;;;;;6.23;1.83;;;;;;;-142.64;100.00;58178.75;5031671;28;20095;-59
2022/07/17 00:33:23;;;;;;;4.85;2.05;;;;;;;;;;5031731;28;20272;-59
2022/07/17 00:35:48;;;;;;;6.60;2.33;;;;;;;22.55;100.00;58178.75;5031271;28;20041;-60
2022/07/17 00:38:14;;;;;;;8.25;2.50;;;;;;;22.55;100.00;58178.75;5030968;28;20401;-59
2022/07/17 00:40:40;;;;;;;6.35;2.10;;;;;;;22.55;100.00;58178.75;5030385;28;20037;-58
2022/07/17 00:43:05;;;;;;;7.50;2.60;;;;;;;;;;5031098;28;20033;-59
2022/07/17 00:45:31;;;;;;;5.65;2.20;;;;;;;22.55;0.00;58178.75;5031280;28;20044;-59
2022/07/17 00:47:58;;;;;;;4.90;2.30;;;;;;;;;;5031382;28;20075;-58
2022/07/17 00:50:24;;;;;;;5.30;2.58;;;;;;;;;;5031331;28;20045;-59
2022/07/17 00:52:50;;;;;;;4.63;2.40;;;;;;;22.55;73.26;58178.75;5031194;28;20037;-60
2022/07/17 00:55:17;;;;;;;9.30;2.60;;;;;;;22.55;74.00;58178.75;5029621;28;20394;-58
2022/07/17 00:57:46;;;;;;;5.72;2.20;;;;;;;22.55;72.40;58178.75;5030869;28;20033;-59
2022/07/17 01:00:11;;;;;;;5.25;2.22;;;;;;;;;;5029795;28;20418;-60
2022/07/17 01:02:37;;;;;;;3.65;2.22;;;;;;;22.55;79.99;58178.75;5031274;28;20067;-58
2022/07/17 01:05:04;;;;;;;8.45;2.40;;;;;;;22.55;100.00;58178.75;5031089;28;20042;-59
2022/07/17 01:07:29;;;;;;;13.77;2.63;;;;;;;22.55;100.00;58178.75;5030872;28;20112;-58
2022/07/17 01:09:54;;;;;;;4.78;1.85;;;;;;;;;;5030851;28;20536;-58
2022/07/17 01:12:20;;;;;;;7.53;2.58;;;;;;;;;;5030776;28;20087;-59
2022/07/17 01:14:46;;;;;;;4.95;2.58;;;;;;;;;;5032706;28;20077;-57
2022/07/17 01:17:11;;;;;;;5.87;2.50;;;;;;;;;;5034488;28;20044;-59
2022/07/17 01:19:37;;;;;;;6.43;2.78;;;;;;;;;;5034792;28;20280;-59
2022/07/17 01:22:02;;;;;;;6.90;2.63;;;;;;;12.70;nan;102576.69;5034623;28;20033;-60
2022/07/17 01:24:27;;;;;;;5.22;3.33;;;;;;;12.97;nan;102619.47;5034424;28;20030;-59
2022/07/17 01:26:53;;;;;;;6.28;2.97;;;;;;;12.95;nan;102625.69;5034493;28;20025;-60
2022/07/17 01:29:18;;;;;;;5.72;2.83;;;;;;;12.84;nan;102615.25;5034894;28;20388;-59
2022/07/17 01:31:44;;;;;;;4.90;3.00;;;;;;;12.88;nan;102627.53;5033183;28;20060;-58
2022/07/17 01:34:12;;;;;;;5.57;3.25;;;;;;;12.90;nan;102635.44;5033028;28;20037;-60
2022/07/17 01:36:38;;;;;;;3.45;2.92;;;;;;;12.82;nan;102616.16;5033245;28;20025;-59
2022/07/17 01:39:04;;;;;;;4.07;3.05;;;;;;;12.76;nan;102614.47;5034640;28;20449;-59
2022/07/17 01:41:30;;;;;;;8.00;3.75;;;;;;;12.73;nan;102606.59;5034259;28;20401;-59
2022/07/17 01:43:55;;;;;;;7.53;3.05;;;;;;;12.77;nan;102628.56;5032950;28;21155;-59
2022/07/17 01:46:21;;;;;;;4.35;3.10;;;;;;;12.66;nan;102602.28;5034287;28;20061;-59
2022/07/17 01:48:46;;;;;;;9.82;3.17;;;;;;;12.70;nan;102618.94;5034220;28;20030;-60
2022/07/17 01:51:11;;;;;;;6.18;3.35;;;;;;;12.67;nan;102633.09;5034115;28;20499;-58
2022/07/17 01:53:37;;;;;;;5.90;2.90;;;;;;;12.62;nan;102634.03;5034119;28;20041;-59
2022/07/17 01:56:03;;;;;;;7.40;3.53;;;;;;;12.63;nan;102625.22;5032239;28;20069;-59
2022/07/17 01:58:28;;;;;;;10.38;3.75;;;;;;;12.61;nan;102622.59;5033684;28;20075;-59
2022/07/17 02:00:53;;;;;;;7.95;3.80;;;;;;;12.29;nan;102570.16;5032281;28;20068;-58
2022/07/17 02:03:19;;;;;;;6.72;3.80;;;;;;;12.51;nan;102618.34;5033844;28;20043;-60
2022/07/17 02:05:45;;;;;;;9.68;3.92;;;;;;;12.24;nan;102569.34;5033681;28;20033;-58
2022/07/17 02:08:10;;;;;;;7.15;4.05;;;;;;;12.18;nan;102560.63;5033509;28;20153;-58
2022/07/17 02:10:35;;;;;;;9.55;4.13;;;;;;;12.48;nan;102617.50;5032421;28;20041;-59
2022/07/17 02:13:01;;;;;;;8.88;3.67;;;;;;;12.45;nan;102613.13;5032565;28;20096;-59
2022/07/17 02:15:27;;;;;;;7.32;3.70;;;;;;;22.55;62.92;45263.00;5032382;28;20040;-58
2022/07/17 02:17:52;;;;;;;6.28;3.78;;;;;;;;;;5015732;28;20029;-58
2022/07/17 02:20:17;;;;;;;5.13;3.60;;;;;;;12.34;nan;102607.97;5033518;28;20160;-59
2022/07/17 02:22:43;;;;;;;5.80;3.55;;;;;;;12.32;nan;102606.22;5033518;28;20344;-60
2022/07/17 02:25:10;;;;;;;8.98;3.90;;;;;;;11.96;nan;102544.19;5031618;28;20542;-60
2022/07/17 02:27:35;;;;;;;7.50;3.33;;;;;;;12.37;nan;102617.63;5032625;28;20396;-59
2022/07/17 02:30:03;;;;;;;7.32;3.35;;;;;;;12.02;nan;102562.59;5016635;28;20032;-59
2022/07/17 02:32:29;;;;;;;7.30;2.95;;;;;;;12.39;nan;102624.63;5033594;28;20037;-59
2022/07/17 02:34:54;;;;;;;5.70;3.13;;;;;;;12.37;nan;102626.41;5032663;28;20039;-59
2022/07/17 02:37:19;;;;;;;7.53;3.40;;;;;;;12.08;nan;102588.03;5015852;28;20034;-60
2022/07/17 02:39:53;;;;;;;4.82;3.35;;;;;;;11.95;nan;102562.66;5013971;28;20053;-60
2022/07/17 02:42:24;;;;;;;6.10;3.13;;;;;;;12.31;nan;102642.34;5014509;28;20126;-60
2022/07/17 02:44:49;;;;;;;6.22;3.08;;;;;;;11.89;nan;102570.63;5014325;28;20045;-58
2022/07/17 02:47:25;;;;;;;8.02;3.40;;;;;;;12.33;nan;102656.38;5014085;28;20548;-58
2022/07/17 02:49:51;;;;;;;5.22;3.22;;;;;;;12.34;nan;102649.34;5012956;28;20033;-60
2022/07/17 02:52:17;;;;;;;5.15;3.58;;;;;;;12.33;nan;102653.75;5013940;28;20122;-59
2022/07/17 02:54:42;;;;;;;5.13;3.30;;;;;;;11.91;nan;102582.91;5013937;28;20057;-59
2022/07/17 02:57:08;;;;;;;8.10;2.85;;;;;;;12.29;nan;102645.84;5012821;28;20491;-59
2022/07/17 02:59:33;;;;;;;4.78;2.97;;;;;;;12.25;nan;102654.72;5013773;28;20044;-59
2022/07/17 03:01:58;;;;;;;5.40;3.15;;;;;;;12.12;nan;102631.97;5013949;28;20041;-59
2022/07/17 03:04:23;;;;;;;4.63;3.10;;;;;;;12.19;nan;102642.47;5013272;28;20069;-59
2022/07/17 03:06:49;;;;;;;5.28;3.38;;;;;;;12.16;nan;102650.41;5013467;28;20026;-60
2022/07/17 03:09:14;;;;;;;5.70;3.30;;;;;;;12.11;nan;102630.25;5013799;28;20038;-60
2022/07/17 03:11:40;;;;;;;5.25;3.55;;;;;;;11.74;nan;102583.09;5012618;28;20080;-59
2022/07/17 03:14:05;;;;;;;4.43;3.20;;;;;;;12.10;nan;102649.59;5013578;28;20393;-60
2022/07/17 03:16:30;;;;;;;6.95;3.63;;;;;;;11.69;nan;102573.44;5013522;28;20033;-60
2022/07/17 03:18:55;;;;;;;4.90;2.92;;;;;;;12.05;nan;102636.47;5013408;28;20125;-60
2022/07/17 03:21:21;;;;;;;5.60;3.42;;;;;;;11.68;nan;102585.75;5013432;28;20064;-60
2022/07/17 03:23:46;;;;;;;6.70;3.50;;;;;;;12.04;nan;102650.53;5013395;28;20095;-59
2022/07/17 03:26:11;;;;;;;8.05;3.38;;;;;;;11.68;nan;102584.88;5013097;28;20034;-59
2022/07/17 03:28:37;;;;;;;7.63;4.38;;;;;;;12.00;nan;102640.00;5013472;28;20045;-59
2022/07/17 03:31:02;;;;;;;5.10;2.85;;;;;;;12.00;nan;102653.19;5013407;28;20096;-59
2022/07/17 03:33:27;;;;;;;7.50;3.72;;;;;;;12.00;nan;102645.28;5013211;28;20030;-60
2022/07/17 03:35:53;;;;;;;6.18;3.42;;;;;;;11.71;nan;102604.22;5013057;28;20242;-58
2022/07/17 03:38:18;;;;;;;7.35;3.35;;;;;;;11.84;nan;102629.63;5020095;28;20080;-59
2022/07/17 03:40:43;;;;;;;8.27;3.35;;;;;;;11.92;nan;102636.56;5032959;28;20033;-58
2022/07/17 03:43:09;;;;;;;5.57;3.92;;;;;;;11.88;nan;102624.31;5032638;28;20049;-58
2022/07/17 03:45:34;;;;;;;8.68;4.35;;;;;;;11.76;nan;102612.97;5031712;28;20033;-58
2022/07/17 03:47:59;;;;;;;5.85;3.53;;;;;;;11.47;nan;102558.72;5031512;28;20041;-58
2022/07/17 03:50:24;;;;;;;6.28;3.72;;;;;;;11.85;nan;102628.72;5032632;28;20034;-59
2022/07/17 03:52:50;;;;;;;5.70;3.67;;;;;;;11.52;nan;102570.09;5031362;28;20374;-59
2022/07/17 03:55:16;;;;;;;9.02;4.57;;;;;;;11.56;nan;102567.38;5032467;28;20443;-60
2022/07/17 03:57:41;;;;;;;6.32;4.70;;;;;;;11.46;nan;102546.41;5032573;28;20037;-59
2022/07/17 04:00:07;;;;;;;6.38;4.00;;;;;;;11.97;nan;102632.13;5017753;28;20412;-60
2022/07/17 04:02:32;;;;;;;8.73;4.28;;;;;;;11.92;nan;102634.81;5030015;28;20045;-59
2022/07/17 04:04:58;;;;;;;6.38;4.35;;;;;;;11.57;nan;102574.44;5032531;28;20095;-59
2022/07/17 04:07:26;;;;;;;6.40;4.55;;;;;;;11.95;nan;102647.09;5031939;28;20041;-61
2022/07/17 04:09:58;;;;;;;10.50;4.95;;;;;;;11.61;nan;102575.28;5032095;28;20217;-60
2022/07/17 04:12:24;;;;;;;9.18;4.35;;;;;;;11.99;nan;102649.72;5031829;28;20469;-60
2022/07/17 04:14:49;;;;;;;9.98;4.75;;;;;;;11.75;nan;102605.97;5032407;28;20088;-59
2022/07/17 04:17:15;;;;;;;7.45;4.70;;;;;;;12.05;nan;102648.78;5031021;28;20053;-60
2022/07/17 04:19:40;;;;;;;7.10;3.75;;;;;;;11.65;nan;102588.41;5031901;28;20507;-58
2022/07/17 04:22:05;;;;;;;9.88;5.95;;;;;;;12.06;nan;102653.16;5032180;28;20389;-57
2022/07/17 04:24:31;;;;;;;9.95;7.18;;;;;;;12.07;nan;102653.16;5032129;28;20037;-59
2022/07/17 04:26:56;;;;;;;8.57;5.65;;;;;;;11.62;nan;102588.44;5032409;28;20029;-59
2022/07/17 04:29:21;;;;;;;9.38;5.07;;;;;;;12.08;nan;102662.81;5032302;28;20037;-60
2022/07/17 04:31:47;;;;;;;6.30;4.18;;;;;;;11.63;nan;102571.75;5032380;28;20037;-59
2022/07/17 04:34:12;;;;;;;7.68;4.57;;;;;;;12.17;nan;102653.94;5031797;28;20045;-59
2022/07/17 04:36:37;;;;;;;7.15;4.18;;;;;;;11.77;nan;102575.16;5031008;28;20042;-59
2022/07/17 04:39:02;;;;;;;7.15;4.07;;;;;;;12.25;nan;102650.31;5032189;28;20049;-60
2022/07/17 04:41:28;;;;;;;7.80;4.13;;;;;;;11.95;nan;102584.63;5032237;28;20052;-60
2022/07/17 04:43:53;;;;;;;5.63;3.50;;;;;;;11.98;nan;102592.53;5032109;28;20034;-58
2022/07/17 04:46:19;;;;;;;9.48;4.30;;;;;;;12.33;nan;102645.81;5030818;28;20057;-59
2022/07/17 04:48:44;;;;;;;12.00;3.97;;;;;;;12.05;nan;102591.59;5030662;28;20040;-60
2022/07/17 04:51:10;;;;;;;5.55;3.90;;;;;;;12.36;nan;102647.56;5034784;28;20040;-59
2022/07/17 04:53:36;;;;;;;7.63;4.38;;;;;;;12.44;nan;102653.63;5036162;28;20033;-59
2022/07/17 04:56:02;;;;;;;7.18;3.97;;;;;;;12.46;nan;102645.69;5034889;28;20033;-60
2022/07/17 04:58:28;;;;;;;6.97;4.72;;;;;;;12.51;nan;102649.16;5035859;28;20040;-59
2022/07/17 05:00:53;;;;;;;9.70;5.05;;;;;;;12.54;nan;102639.44;5035829;28;20041;-59
2022/07/17 05:03:18;;;;;;;10.10;4.82;;;;;;;12.60;nan;102641.13;5035589;28;20049;-60
2022/07/17 05:05:44;;;;;;;6.72;4.10;;;;;;;12.45;nan;102607.84;5034331;28;20160;-60
2022/07/17 05:08:09;;;;;;;11.13;4.90;;;;;;;12.34;nan;102583.34;5035754;28;20080;-60
2022/07/17 05:10:34;;;;;;;6.57;3.78;;;;;;;12.34;nan;102578.06;5035734;28;20120;-60
2022/07/17 05:13:00;;;;;;;6.72;3.47;;;;;;;12.71;nan;102629.53;5035432;28;20038;-59
2022/07/17 05:15:25;;;;;;;7.35;4.45;;;;;;;12.76;nan;102624.16;5035518;28;20030;-60
2022/07/17 05:17:50;;;;;;;6.95;3.22;;;;;;;12.56;nan;102587.44;5034208;28;20065;-61
2022/07/17 05:20:16;;;;;;;5.47;3.47;;;;;;;12.87;nan;102646.91;5035251;28;20034;-59
2022/07/17 05:22:41;;;;;;;6.25;3.70;;;;;;;12.59;nan;102587.41;5034203;28;20113;-59
2022/07/17 05:25:07;;;;;;;6.55;3.13;;;;;;;12.96;nan;102651.19;5034251;28;20388;-58
2022/07/17 05:27:32;;;;;;;6.13;3.15;;;;;;;12.99;nan;102646.75;5034091;28;20033;-59
2022/07/17 05:29:58;;;;;;;6.43;3.15;;;;;;;12.76;nan;102605.66;5034127;28;20026;-59
2022/07/17 05:32:23;;;;;;;7.90;2.78;;;;;;;13.12;nan;102657.19;5033902;28;20051;-60
2022/07/17 05:34:48;;;;;;;6.03;2.67;;;;;;;13.17;nan;102645.66;5034919;28;20473;-60
2022/07/17 05:37:14;;;;;;;8.35;2.33;;;;;;;13.35;nan;102663.91;5033932;28;20503;-61
2022/07/17 05:39:39;;;;;;;5.90;2.38;;;;;;;13.42;nan;102652.34;5035011;28;20057;-59
2022/07/17 05:42:05;;;;;;;6.07;2.40;;;;;;;13.21;nan;102597.13;5033713;28;20120;-59
2022/07/17 05:44:30;;;;;;;3.20;1.88;;;;;;;13.38;nan;102602.13;5033720;28;20096;-59
2022/07/17 05:46:56;;;;;;;4.57;1.70;;;;;;;13.86;nan;102671.91;5033695;28;20152;-59
2022/07/17 05:49:21;;;;;;;3.10;1.52;;;;;;;13.97;nan;102678.78;5035180;28;20026;-58
2022/07/17 05:51:46;;;;;;;4.47;1.40;;;;;;;13.81;nan;102636.69;5035232;28;20036;-59
2022/07/17 05:54:11;;;;;;;4.30;1.80;;;;;;;14.19;nan;102688.97;5034869;28;20232;-59
2022/07/17 05:56:37;;;;;;;3.03;1.65;;;;;;;14.10;nan;102652.94;5034843;28;20120;-59
2022/07/17 05:59:02;;;;;;;7.15;2.08;;;;;;;14.45;nan;102687.63;5034544;28;20469;-58
2022/07/17 06:01:27;;;;;;;5.43;1.45;;;;;;;14.66;nan;102707.53;5034103;28;20029;-59
2022/07/17 06:03:53;;;;;;;3.33;1.48;;;;;;;14.56;nan;102666.22;5034196;28;20091;-60
2022/07/17 06:06:18;;;;;;;4.15;1.58;;;;;;;14.92;nan;102713.19;5033386;28;20072;-60
2022/07/17 06:08:43;;;;;;;5.07;1.38;;;;;;;15.03;nan;102724.44;5034616;28;20382;-60
2022/07/17 06:11:09;;;;;;;6.68;1.88;;;;;;;15.04;nan;102706.75;5033370;28;20041;-58
2022/07/17 06:13:34;;;;;;;4.95;1.33;;;;;;;15.18;nan;102707.31;5034626;28;20133;-58
2022/07/17 06:15:59;;;;;;;2.50;1.35;;;;;;;15.33;nan;102730.84;5033236;28;20046;-58
2022/07/17 06:18:25;;;;;;;5.15;1.27;;;;;;;15.43;nan;102731.53;5034178;28;20030;-59
2022/07/17 06:20:51;;;;;;;7.47;1.30;;;;;;;15.22;nan;102679.81;5033582;28;20095;-60
2022/07/17 06:23:16;;;;;;;4.72;1.85;;;;;;;15.42;nan;102693.50;5034261;28;20037;-60
2022/07/17 06:25:41;;;;;;;1.95;1.15;;;;;;;15.53;nan;102685.31;5034147;28;20030;-59
2022/07/17 06:28:07;;;;;;;4.28;1.80;;;;;;;16.00;nan;102747.88;5034122;28;20481;-60
2022/07/17 06:30:32;;;;;;;6.22;1.30;;;;;;;16.09;nan;102761.81;5033956;28;20040;-59
2022/07/17 06:32:57;;;;;;;4.90;1.63;;;;;;;16.22;nan;102752.66;5034076;28;20034;-60
2022/07/17 06:35:23;;;;;;;6.10;1.20;;;;;;;16.30;nan;102752.44;5034237;28;20041;-60
2022/07/17 06:37:48;;;;;;;4.10;1.10;;;;;;;16.42;nan;102765.41;5033921;28;20060;-60
2022/07/17 06:40:13;;;;;;;2.33;1.25;;;;;;;16.52;nan;102763.41;5034022;28;20037;-60
2022/07/17 06:42:39;;;;;;;4.95;1.38;;;;;;;16.27;nan;102705.56;5033839;28;20037;-59
2022/07/17 06:45:05;;;;;;;6.43;1.58;;;;;;;16.72;nan;102769.94;5032178;28;20477;-61
2022/07/17 06:47:30;;;;;;;3.85;0.90;;;;;;;16.85;nan;102766.03;5034021;28;20033;-59
2022/07/17 06:49:55;;;;;;;5.70;1.60;;;;;;;16.63;nan;102700.19;5034124;28;20495;-60
2022/07/17 06:52:20;;;;;;;2.70;1.10;;;;;;;17.07;nan;102758.31;5032608;28;20037;-60
2022/07/17 06:54:46;;;;;;;5.55;1.58;;;;;;;17.23;nan;102761.38;5033628;28;20029;-60
2022/07/17 06:57:11;;;;;;;4.82;1.27;;;;;;;17.29;nan;102772.72;5033635;28;20036;-60
2022/07/17 06:59:37;;;;;;;2.58;1.10;;;;;;;17.34;nan;102768.13;5033809;28;20030;-60
2022/07/17 07:02:02;;;;;;;4.47;1.17;;;;;;;17.54;nan;102780.88;5033341;28;20065;-59
2022/07/17 07:04:28;;;;;;;3.90;1.00;;;;;;;17.70;nan;102776.84;5033242;28;20076;-60
2022/07/17 07:06:53;;;;;;;3.55;1.25;;;;;;;17.49;nan;102721.53;5033334;28;20041;-60
2022/07/17 07:09:19;;;;;;;3.75;1.35;;;;;;;17.94;nan;102783.16;5032370;28;20060;-60
2022/07/17 07:11:44;;;;;;;5.78;1.15;;;;;;;17.71;nan;102735.09;5032555;28;20045;-61
2022/07/17 07:14:09;;;;;;;3.97;1.08;;;;;;;18.10;nan;102779.06;5033195;28;20396;-61
2022/07/17 07:16:34;;;;;;;3.13;1.30;;;;;;;17.91;nan;102719.31;5033220;28;20365;-61
2022/07/17 07:19:00;;;;;;;3.42;1.30;;;;;;;18.42;nan;102792.19;5031942;28;20036;-59
2022/07/17 07:21:26;;;;;;;2.85;0.90;;;;;;;18.22;nan;102725.34;5032189;28;20033;-60
2022/07/17 07:23:54;;;;;;;3.15;1.30;;;;;;;18.61;nan;102791.59;5033065;28;20034;-58
2022/07/17 07:26:20;;;;;;;3.53;1.20;;;;;;;18.47;nan;102752.06;5033138;28;20040;-59
2022/07/17 07:28:45;;;;;;;4.40;1.27;;;;;;;18.48;nan;102724.44;5033345;28;20042;-60
2022/07/17 07:31:11;;;;;;;3.63;1.20;;;;;;;18.86;nan;102787.13;5032963;28;20042;-59
2022/07/17 07:33:37;;;;;;;3.15;1.20;;;;;;;19.08;nan;102788.97;5032809;28;20037;-59
2022/07/17 07:36:03;;;;;;;4.10;1.17;;;;;;;19.29;nan;102773.94;5031494;28;20127;-60
2022/07/17 07:38:29;;;;;;;3.25;1.13;;;;;;;19.30;nan;102726.72;5032650;28;20156;-60
2022/07/17 07:40:54;;;;;;;5.40;1.30;;;;;;;19.85;nan;102752.19;5032656;28;20033;-60
2022/07/17 07:43:19;;;;;;;5.65;1.50;;;;;;;20.25;nan;102779.03;5031517;28;20129;-61
2022/07/17 07:45:44;;;;;;;2.55;1.25;;;;;;;20.59;nan;102782.00;5031492;28;20069;-59
2022/07/17 07:48:10;;;;;;;4.10;1.13;;;;;;;20.91;nan;102780.56;5032560;28;20053;-61
2022/07/17 07:50:35;;;;;;;2.60;0.70;;;;;;;21.29;nan;102797.59;5031629;28;20025;-59
2022/07/17 07:53:01;;;;;;;3.75;1.20;;;;;;;21.45;nan;102795.09;5031527;28;20095;-60
2022/07/17 07:55:26;;;;;;;3.38;1.02;;;;;;;21.68;nan;102813.63;5032526;28;20397;-60
2022/07/17 07:58:05;;;;;;;2.80;1.33;;;;;;;21.84;nan;102793.16;5031718;28;20040;-59
2022/07/17 08:00:31;;;;;;;4.85;1.02;;;;;;;21.59;nan;102706.84;5032551;28;20527;-60
2022/07/17 08:02:56;;;;;;;4.50;1.00;;;;;;;22.44;nan;102791.97;5032316;28;20064;-60
2022/07/17 08:05:21;;;;;;;3.05;1.10;;;;;;;22.86;nan;102799.63;5032075;28;20045;-60
2022/07/17 08:07:47;;;;;;;3.13;0.98;;;;;;;23.08;nan;102789.47;5032481;28;20034;-61
2022/07/17 08:10:12;;;;;;;5.68;1.17;;;;;;;22.97;nan;102755.13;5014881;28;20045;-60
2022/07/17 08:12:37;;;;;;;3.28;1.13;;;;;;;23.23;nan;102768.97;5031326;28;21327;-60
2022/07/17 08:15:04;;;;;;;2.42;1.00;;;;;;;22.96;nan;102748.03;5032398;28;20515;-59
2022/07/17 08:17:29;;;;;;;3.50;1.10;;;;;;;23.13;nan;102800.84;5032457;28;20045;-60
2022/07/17 08:19:55;;;;;;;2.25;0.88;;;;;;;23.10;nan;102797.44;5032407;28;20049;-60
2022/07/17 08:22:20;;;;;;;4.78;1.17;;;;;;;23.04;nan;102754.78;5032143;28;20388;-60
2022/07/17 08:24:46;;;;;;;3.35;0.98;;;;;;;23.28;nan;102796.44;5031794;28;20041;-59
2022/07/17 08:27:11;;;;;;;2.95;1.15;;;;;;;23.11;nan;102804.56;5033164;28;20427;-60
2022/07/17 08:29:36;;;;;;;4.13;1.23;;;;;;;23.13;nan;102781.16;5032466;28;20159;-59
2022/07/17 08:32:02;;;;;;;1.75;0.90;;;;;;;22.86;nan;102722.63;5032064;28;20058;-60
2022/07/17 08:34:27;;;;;;;5.13;1.33;;;;;;;23.53;nan;102791.47;5030731;28;20034;-59
2022/07/17 08:36:52;;;;;;;2.25;0.80;;;;;;;23.67;nan;102788.88;5031981;28;20049;-60
2022/07/17 08:39:18;;;;;;;4.68;1.77;;;;;;;23.74;nan;102723.03;5031858;28;20113;-60
2022/07/17 08:41:43;;;;;;;2.13;0.98;;;;;;;24.27;nan;102792.56;5032163;28;20026;-60
2022/07/17 08:44:09;;;;;;;1.95;1.00;;;;;;;24.50;nan;102761.59;5028821;28;20050;-59
2022/07/17 08:46:38;;;;;;;2.22;1.00;;;;;;;24.79;nan;102779.53;5030982;28;20033;-59
2022/07/17 08:49:05;;;;;;;2.15;1.23;;;;;;;25.04;nan;102814.78;5031104;28;20076;-59
2022/07/17 08:51:31;;;;;;;3.33;1.17;;;;;;;24.61;nan;102740.25;5032145;28;20029;-59
2022/07/17 08:53:57;;;;;;;1.70;1.05;;;;;;;24.56;nan;102785.44;5031730;28;20041;-59
2022/07/17 08:56:22;;;;;;;1.75;1.10;;;;;;;24.67;nan;102791.03;5031918;28;20061;-59
2022/07/17 08:58:48;;;;;;;3.25;1.45;;;;;;;24.86;nan;102756.69;5031884;28;20064;-59
2022/07/17 09:01:14;;;;;;;2.45;1.50;;;;;;;25.35;nan;102796.69;5032132;28;20045;-60
2022/07/17 09:03:41;;;;;;;2.13;1.15;;;;;;;25.43;nan;102762.03;5031095;28;20489;-59
2022/07/17 09:06:20;;;;;;;1.63;0.90;;;;;;;26.40;nan;102806.84;5031979;28;20037;-59
2022/07/17 09:08:45;;;;;;;1.45;0.93;;;;;;;26.46;nan;102787.53;5030631;28;20030;-60
2022/07/17 09:11:10;;;;;;;3.50;1.00;;;;;;;26.36;nan;102764.84;5030464;28;20490;-60
2022/07/17 09:13:36;;;;;;;2.55;1.08;;;;;;;26.99;nan;102803.63;5031759;28;20120;-59
2022/07/17 09:16:10;;;;;;;1.63;0.90;;;;;;;26.83;nan;102775.94;5031975;28;20037;-58
2022/07/17 09:18:46;;;;;;;1.88;1.08;;;;;;;26.82;nan;102815.59;5030810;28;20033;-58
2022/07/17 09:21:23;;;;;;;4.18;1.35;;;;;;;26.57;nan;102750.72;5031669;28;20033;-59
2022/07/17 09:24:04;;;;;;;1.63;0.75;;;;;;;26.99;nan;102803.63;5031487;28;20037;-58
2022/07/17 09:26:32;;;;;;;2.88;1.63;;;;;;;27.15;nan;102798.84;5031903;28;20048;-58
2022/07/17 09:28:58;;;;;;;1.63;1.00;;;;;;;26.79;nan;102812.25;5031888;28;20468;-59
2022/07/17 09:31:31;;;;;;;3.13;1.20;;;;;;;26.46;nan;102756.00;5031790;28;20159;-59
2022/07/17 09:33:57;;;;;;;1.50;1.15;;;;;;;26.37;nan;102751.22;5030182;28;20030;-59
2022/07/17 09:36:22;;;;;;;1.08;0.98;;;;;;;26.58;nan;102746.19;5033790;28;20033;-58
2022/07/17 09:38:53;;;;;;;2.92;1.20;;;;;;;26.46;nan;102747.91;5033628;28;20148;-59
2022/07/17 09:41:20;;;;;;;1.38;0.75;;;;;;;26.76;nan;102804.34;5035202;28;20029;-59
2022/07/17 09:43:52;;;;;;;2.40;1.00;;;;;;;26.80;nan;102797.75;5034950;28;20060;-59
2022/07/17 09:46:32;;;;;;;1.73;1.00;;;;;;;27.31;nan;102794.09;5035049;28;20032;-58
2022/07/17 09:48:59;;;;;;;3.13;1.30;;;;;;;27.90;nan;102795.09;5034965;28;20035;-59
2022/07/17 09:51:30;;;;;;;1.40;1.00;;;;;;;27.93;nan;102742.63;5017272;28;20037;-59
2022/07/17 09:53:56;;;;;;;;;;;;;;;28.16;nan;102782.38;5035093;28;20040;-59
2022/07/17 09:56:25;;;;;;;2.63;0.82;;;;;;;27.88;nan;102733.97;5034516;28;20030;-58
2022/07/17 09:58:53;;;;;;;2.10;0.98;;;;;;;27.86;nan;102754.88;5034784;28;20044;-59
2022/07/17 10:01:19;;;;;;;1.67;0.60;;;;;;;27.77;nan;102788.03;5033446;28;20423;-59
2022/07/17 10:03:45;;;;;;;1.15;0.80;;;;;;;27.63;nan;102804.41;5034528;28;20099;-61
2022/07/17 10:06:11;;;;;;;1.42;0.93;;;;;;;27.42;nan;102782.50;5033267;28;20068;-58
2022/07/17 10:08:37;;;;;;;2.50;1.23;;;;;;;27.51;nan;102786.38;5034613;28;20069;-59
2022/07/17 10:11:04;;;;;;;2.17;0.68;;;;;;;27.76;nan;102783.59;5033295;28;20370;-59
2022/07/17 10:13:30;;;;;;;2.80;0.90;;;;;;;27.64;nan;102744.78;5033189;28;20146;-60
2022/07/17 10:15:56;;;;;;;1.80;1.00;;;;;;;27.56;nan;102749.03;5033118;28;20037;-59
2022/07/17 10:18:21;;;;;;;2.25;1.15;;;;;;;28.02;nan;102793.31;5033481;28;20037;-59
2022/07/17 10:20:47;;;;;;;1.20;1.02;;;;;;;28.30;nan;102802.97;5034524;28;20033;-59
2022/07/17 10:23:13;;;;;;;1.92;1.10;;;;;;;28.22;nan;102759.38;5033224;28;20124;-58
2022/07/17 10:25:39;;;;;;;2.33;0.80;;;;;;;28.52;nan;102785.94;5034137;28;20057;-59
2022/07/17 10:28:04;;;;;;;2.75;1.10;;;;;;;28.59;nan;102750.13;5033993;28;20118;-60
2022/07/17 10:30:31;;;;;;;1.55;1.00;;;;;;;29.19;nan;102801.34;5032732;28;20033;-58
2022/07/17 10:33:16;;;;;;;2.92;1.10;;;;;;;28.19;nan;102805.66;5034677;28;20041;-59
2022/07/17 10:35:48;;;;;;;1.02;0.93;;;;;;;28.52;nan;102813.03;5016447;28;20095;-58
2022/07/17 10:38:15;;;;;;;2.38;1.05;;;;;;;28.94;nan;102815.13;5032734;28;20117;-60
2022/07/17 10:40:41;;;;;;;2.28;1.02;;;;;;;29.08;nan;102809.47;5034016;28;20072;-59
2022/07/17 10:43:08;;;;;;;1.45;1.08;;;;;;;28.78;nan;102790.22;5032433;28;20378;-60
2022/07/17 10:45:35;;;;;;;1.55;1.27;;;;;;;28.91;nan;102799.09;5034065;28;20034;-59
2022/07/17 10:48:09;;;;;;;2.35;0.80;;;;;;;29.11;nan;102808.34;5033645;28;20041;-59
2022/07/17 10:50:40;;;;;;;1.17;0.80;;;;;;;29.25;nan;102791.88;5033815;28;20088;-60
2022/07/17 10:53:16;;;;;;;1.42;0.90;;;;;;;29.40;nan;102805.06;5032782;28;20064;-59
2022/07/17 10:55:43;;;;;;;2.00;1.15;;;;;;;28.94;nan;102742.81;5033809;28;20042;-59
2022/07/17 10:58:25;;;;;;;1.48;1.17;;;;;;;28.83;nan;102802.44;5032443;28;20025;-59
2022/07/17 11:01:01;;;;;;;1.60;1.25;;;;;;;28.70;nan;102814.34;5033692;28;20025;-59
2022/07/17 11:03:27;;;;;;;2.60;1.33;;;;;;;29.16;nan;102798.88;5032064;28;20109;-60
2022/07/17 11:05:52;;;;;;;2.15;1.10;;;;;;;29.34;nan;102810.13;5032215;28;20400;-59
2022/07/17 11:08:17;;;;;;;3.50;1.00;;;;;;;28.80;nan;102751.19;5033232;28;20045;-59
2022/07/17 11:10:43;;;;;;;3.33;1.30;;;;;;;29.15;nan;102786.31;5032354;28;20112;-59
2022/07/17 11:13:13;;;;;;;2.35;1.80;;;;;;;29.34;nan;102791.13;5033587;28;20040;-60
2022/07/17 11:15:45;;;;;;;3.28;1.73;;;;;;;29.12;nan;102751.31;5033251;28;20037;-58
2022/07/17 11:18:12;;;;;;;3.03;2.03;;;;;;;29.35;nan;102787.44;5033243;28;20037;-59
2022/07/17 11:20:52;;;;;;;2.50;1.45;;;;;;;29.64;nan;102782.34;5033154;28;20431;-59
2022/07/17 11:23:19;;;;;;;2.27;1.73;;;;;;;29.94;nan;102778.00;5032921;28;20465;-59
2022/07/17 11:26:02;;;;;;;1.92;1.42;;;;;;;29.66;nan;102736.94;5031739;28;20121;-60
2022/07/17 11:28:35;;;;;;;3.05;1.40;;;;;;;30.51;nan;102798.50;5033111;28;20469;-59
2022/07/17 11:31:01;;;;;;;2.20;1.52;;;;;;;30.61;nan;102797.59;5032965;28;20610;-59
2022/07/17 11:33:27;;;;;;;2.10;1.40;;;;;;;31.03;nan;102798.41;5033181;28;20079;-58
2022/07/17 11:35:54;;;;;;;2.47;1.40;;;;;;;31.17;nan;102789.06;5032645;28;20037;-59
2022/07/17 11:38:27;;;;;;;3.22;1.70;;;;;;;31.60;nan;102797.84;5032761;28;20522;-58
2022/07/17 11:40:52;;;;;;;3.90;1.60;;;;;;;31.77;nan;102796.28;5032759;28;20480;-58
2022/07/17 11:43:18;;;;;;;4.43;2.22;;;;;;;31.38;nan;102780.84;5032660;28;20067;-58